createdAt,value
2018-03-16T00:01:57.952Z,52.10
2018-03-16T00:04:25.607Z,42.40
2018-03-16T00:06:53.149Z,49.10
2018-03-16T00:09:20.694Z,53.10
2018-03-16T00:11:48.298Z,63.77
2018-03-16T00:14:15.872Z,55.43
2018-03-16T00:16:43.449Z,45.80
2018-03-16T00:19:11.554Z,36.87
2018-03-16T00:21:39.215Z,37.00
2018-03-16T00:24:06.913Z,33.00
2018-03-16T00:26:34.506Z,36.67
2018-03-16T00:29:03.623Z,42.30
2018-03-16T00:31:31.267Z,34.03
2018-03-16T00:33:58.978Z,39.33
2018-03-16T00:36:26.539Z,40.53
2018-03-16T00:38:54.120Z,36.00
2018-03-16T00:41:21.700Z,37.03
2018-03-16T00:43:49.244Z,40.37
2018-03-16T00:46:16.814Z,37.47
2018-03-16T00:48:44.429Z,38.17
2018-03-16T00:51:12.981Z,41.23
2018-03-16T00:53:40.558Z,34.70
2018-03-16T00:56:08.306Z,41.73
2018-03-16T00:58:35.879Z,38.33
2018-03-16T01:01:03.442Z,39.40
2018-03-16T01:03:31.439Z,41.77
2018-03-16T01:05:59.088Z,37.57
2018-03-16T01:08:26.634Z,39.23
2018-03-16T01:10:54.201Z,36.80
2018-03-16T01:13:21.967Z,37.13
2018-03-16T01:15:49.514Z,38.63
2018-03-16T01:18:17.070Z,35.53
2018-03-16T01:20:46.593Z,35.27
2018-03-16T01:23:14.806Z,34.90
2018-03-16T01:25:42.401Z,33.67
2018-03-16T01:28:10.050Z,34.47
2018-03-16T01:30:37.696Z,32.93
2018-03-16T01:33:05.675Z,26.97
2018-03-16T01:35:33.236Z,32.73
2018-03-16T01:38:00.794Z,32.00
2018-03-16T01:40:28.381Z,32.33
2018-03-16T01:42:55.960Z,30.83
2018-03-16T01:45:23.532Z,37.40
2018-03-16T01:47:51.128Z,35.93
2018-03-16T01:50:18.690Z,29.90
2018-03-16T01:52:57.934Z,33.67
2018-03-16T01:55:26.810Z,29.90
2018-03-16T01:57:54.361Z,31.93
2018-03-16T02:00:21.962Z,32.30
2018-03-16T02:02:49.543Z,32.80
2018-03-16T02:05:19.403Z,27.80
2018-03-16T02:07:48.064Z,33.30
2018-03-16T02:10:15.686Z,27.73
2018-03-16T02:12:43.289Z,34.30
2018-03-16T02:15:11.307Z,32.67
2018-03-16T02:17:38.861Z,31.40
2018-03-16T02:20:06.505Z,29.80
2018-03-16T02:22:34.060Z,36.93
2018-03-16T02:25:01.654Z,35.20
2018-03-16T02:27:29.442Z,34.30
2018-03-16T02:29:57.009Z,34.33
2018-03-16T02:32:24.599Z,40.33
2018-03-16T02:34:52.151Z,33.27
2018-03-16T02:37:19.989Z,37.57
2018-03-16T02:39:47.571Z,32.70
2018-03-16T02:42:15.148Z,32.70
2018-03-16T02:44:42.726Z,38.87
2018-03-16T02:47:11.980Z,35.67
2018-03-16T02:49:39.631Z,36.77
2018-03-16T02:52:07.380Z,49.17
2018-03-16T02:54:34.967Z,79.83
2018-03-16T02:57:02.546Z,100.47
2018-03-16T02:59:30.128Z,74.43
2018-03-16T03:01:58.579Z,64.53
2018-03-16T03:04:26.268Z,41.43
2018-03-16T03:06:55.827Z,38.87
2018-03-16T03:09:23.649Z,40.77
2018-03-16T03:11:53.391Z,47.33
2018-03-16T03:14:20.950Z,38.10
2018-03-16T03:16:48.526Z,43.80
2018-03-16T03:19:20.633Z,38.50
2018-03-16T03:21:48.356Z,38.97
2018-03-16T03:24:18.884Z,45.37
2018-03-16T03:26:46.805Z,42.03
2018-03-16T03:29:14.908Z,39.63
2018-03-16T03:31:42.508Z,35.63
2018-03-16T03:34:10.072Z,36.47
2018-03-16T03:36:37.617Z,41.37
2018-03-16T03:39:05.214Z,37.73
2018-03-16T03:41:32.769Z,49.60
2018-03-16T03:44:00.899Z,42.30
2018-03-16T03:46:28.532Z,36.07
2018-03-16T03:48:56.103Z,43.40
2018-03-16T03:51:24.734Z,39.40
2018-03-16T03:53:54.616Z,40.23
2018-03-16T03:56:26.127Z,39.43
2018-03-16T03:58:55.875Z,41.70
2018-03-16T04:01:23.455Z,36.63
2018-03-16T04:03:51.026Z,36.00
2018-03-16T04:06:18.589Z,46.43
2018-03-16T04:08:46.171Z,50.57
2018-03-16T04:11:14.041Z,48.93
2018-03-16T04:13:41.570Z,41.17
2018-03-16T04:16:09.167Z,39.73
2018-03-16T04:18:36.765Z,38.70
2018-03-16T04:21:04.375Z,39.97
2018-03-16T04:23:31.937Z,46.03
2018-03-16T04:25:59.510Z,38.87
2018-03-16T04:28:27.101Z,40.60
2018-03-16T04:30:54.665Z,39.70
2018-03-16T04:33:22.223Z,42.50
2018-03-16T04:35:49.874Z,44.60
2018-03-16T04:38:17.608Z,37.33
2018-03-16T04:40:45.200Z,53.73
2018-03-16T04:43:12.920Z,44.17
2018-03-16T04:45:40.577Z,42.50
2018-03-16T04:48:08.173Z,49.93
2018-03-16T04:50:35.768Z,56.10
2018-03-16T04:53:03.350Z,52.57
2018-03-16T04:55:31.009Z,45.63
2018-03-16T04:57:58.577Z,45.53
2018-03-16T05:00:26.193Z,45.33
2018-03-16T05:02:53.786Z,41.27
2018-03-16T05:05:21.704Z,43.43
2018-03-16T05:07:49.302Z,40.37
2018-03-16T05:10:16.882Z,46.87
2018-03-16T05:12:44.434Z,50.17
2018-03-16T05:15:12.026Z,47.87
2018-03-16T05:17:39.789Z,38.00
2018-03-16T05:20:07.387Z,44.67
2018-03-16T05:22:34.937Z,49.47
2018-03-16T05:25:02.536Z,44.93
2018-03-16T05:27:30.496Z,47.47
2018-03-16T05:29:58.207Z,51.67
2018-03-16T05:32:27.332Z,57.83
2018-03-16T05:34:54.883Z,51.20
2018-03-16T05:37:22.441Z,50.47
2018-03-16T05:39:50.003Z,50.77
2018-03-16T05:42:17.555Z,46.80
2018-03-16T05:44:45.112Z,47.37
2018-03-16T05:47:12.780Z,44.17
2018-03-16T05:49:40.490Z,45.60
2018-03-16T05:52:08.059Z,41.07
2018-03-16T05:54:35.629Z,43.57
2018-03-16T05:57:03.276Z,50.40
2018-03-16T05:59:30.823Z,44.20
2018-03-16T06:01:58.674Z,42.57
2018-03-16T06:04:26.231Z,42.57
2018-03-16T06:06:53.797Z,50.23
2018-03-16T06:09:21.377Z,44.30
2018-03-16T06:11:48.931Z,45.90
2018-03-16T06:14:16.552Z,40.70
2018-03-16T06:16:44.108Z,50.20
2018-03-16T06:19:12.117Z,44.30
2018-03-16T06:21:39.835Z,48.63
2018-03-16T06:24:07.514Z,50.60
2018-03-16T06:26:35.079Z,47.80
2018-03-16T06:29:02.667Z,44.50
2018-03-16T06:31:30.473Z,50.43
2018-03-16T06:33:58.037Z,45.50
2018-03-16T06:36:25.584Z,52.23
2018-03-16T06:38:53.131Z,56.20
2018-03-16T06:41:20.728Z,50.83
2018-03-16T06:43:48.275Z,56.20
2018-03-16T06:46:15.992Z,53.63
2018-03-16T06:48:43.570Z,50.00
2018-03-16T06:51:11.469Z,51.17
2018-03-16T06:53:39.013Z,52.50
2018-03-16T06:56:06.601Z,49.57
2018-03-16T06:58:34.165Z,55.73
2018-03-16T07:01:01.769Z,46.00
2018-03-16T07:03:30.211Z,45.53
2018-03-16T07:05:57.780Z,51.73
2018-03-16T07:08:26.961Z,53.57
2018-03-16T07:10:54.958Z,46.80
2018-03-16T07:15:57.254Z,51.63
2018-03-16T07:18:24.807Z,67.20
2018-03-16T07:20:52.403Z,53.60
2018-03-16T07:23:21.415Z,54.93
2018-03-16T07:25:49.009Z,48.97
2018-03-16T07:28:16.581Z,62.83
2018-03-16T07:30:44.148Z,51.93
2018-03-16T07:33:12.620Z,58.00
2018-03-16T07:35:40.875Z,56.10
2018-03-16T07:38:11.412Z,62.47
2018-03-16T07:40:39.027Z,60.13
2018-03-16T07:43:06.935Z,58.67
2018-03-16T07:45:40.590Z,58.53
2018-03-16T07:48:08.166Z,59.57
2018-03-16T07:50:35.750Z,80.17
2018-03-16T07:53:06.754Z,98.77
2018-03-16T07:55:35.337Z,98.43
2018-03-16T07:58:05.983Z,96.30
2018-03-16T08:00:33.684Z,99.47
2018-03-16T08:03:01.249Z,95.00
2018-03-16T08:05:28.888Z,91.20
2018-03-16T08:07:56.486Z,88.03
2018-03-16T08:10:24.016Z,89.23
2018-03-16T08:12:51.564Z,86.00
2018-03-16T08:15:19.232Z,87.30
2018-03-16T08:17:46.728Z,79.13
2018-03-16T08:20:14.283Z,74.77
2018-03-16T08:22:41.834Z,80.17
2018-03-16T08:25:09.677Z,75.97
2018-03-16T08:27:37.236Z,62.33
2018-03-16T08:30:04.731Z,61.63
2018-03-16T08:32:32.230Z,65.87
2018-03-16T08:34:59.732Z,65.03
2018-03-16T08:37:28.402Z,48.13
2018-03-16T08:39:55.923Z,53.40
2018-03-16T08:42:24.486Z,40.33
2018-03-16T08:44:51.983Z,38.40
2018-03-16T08:47:19.790Z,38.10
2018-03-16T08:49:47.368Z,32.50
2018-03-16T08:52:14.960Z,33.70
2018-03-16T08:54:42.601Z,30.83
2018-03-16T08:57:10.998Z,37.90
2018-03-16T08:59:38.731Z,34.20
2018-03-16T09:02:06.286Z,30.83
2018-03-16T09:04:33.856Z,26.33
2018-03-16T09:07:01.430Z,24.40
2018-03-16T09:09:29.781Z,23.50
2018-03-16T09:11:57.371Z,21.57
2018-03-16T09:14:26.324Z,20.93
2018-03-16T09:16:53.913Z,30.30
2018-03-16T09:19:21.461Z,20.70
2018-03-16T09:21:49.039Z,20.83
2018-03-16T09:24:16.782Z,20.70
2018-03-16T09:26:44.346Z,15.03
2018-03-16T09:29:12.673Z,19.60
2018-03-16T09:31:40.267Z,21.07
2018-03-16T09:34:07.846Z,21.70
2018-03-16T09:36:35.431Z,21.20
2018-03-16T09:39:03.037Z,22.00
2018-03-16T09:41:31.553Z,31.00
2018-03-16T09:43:59.121Z,32.33
2018-03-16T09:46:26.722Z,45.13
2018-03-16T09:48:54.291Z,39.40
2018-03-16T09:51:21.848Z,42.17
2018-03-16T09:53:49.424Z,46.67
2018-03-16T09:56:16.994Z,51.77
2018-03-16T09:58:44.582Z,54.87
2018-03-16T10:01:12.152Z,49.87
2018-03-16T10:03:39.657Z,54.93
2018-03-16T10:06:07.245Z,57.27
2018-03-16T10:08:34.813Z,54.63
2018-03-16T10:11:02.370Z,59.07
2018-03-16T10:13:30.693Z,63.73
2018-03-16T10:15:58.320Z,63.90
2018-03-16T10:18:25.896Z,53.53
2018-03-16T10:20:53.499Z,70.77
2018-03-16T10:23:21.349Z,64.53
2018-03-16T10:25:49.066Z,64.10
2018-03-16T10:28:16.648Z,63.87
2018-03-16T10:30:44.227Z,58.43
2018-03-16T10:33:11.829Z,58.43
2018-03-16T10:35:40.209Z,65.17
2018-03-16T10:38:07.786Z,59.63
2018-03-16T10:40:35.514Z,65.37
2018-03-16T10:43:03.119Z,61.93
2018-03-16T10:45:30.851Z,56.30
2018-03-16T10:47:58.437Z,61.47
2018-03-16T10:50:26.006Z,61.20
2018-03-16T10:52:53.580Z,61.03
2018-03-16T10:55:21.348Z,58.73
2018-03-16T10:57:48.943Z,51.07
2018-03-16T11:00:22.476Z,59.13
2018-03-16T11:02:51.863Z,62.10
2018-03-16T11:05:32.468Z,62.53
2018-03-16T11:08:06.705Z,65.37
2018-03-16T11:10:34.355Z,65.93
2018-03-16T11:13:01.917Z,41.97
2018-03-16T11:15:30.572Z,49.00
2018-03-16T11:18:05.456Z,42.43
2018-03-16T11:20:33.380Z,50.63
2018-03-16T11:23:00.956Z,39.33
2018-03-16T11:25:29.144Z,34.50
2018-03-16T11:27:59.818Z,33.90
2018-03-16T11:30:27.857Z,31.33
2018-03-16T11:32:55.406Z,30.47
2018-03-16T11:35:23.537Z,30.63
2018-03-16T11:37:51.101Z,30.03
2018-03-16T11:40:22.188Z,23.60
2018-03-16T11:42:49.750Z,27.53
2018-03-16T11:45:17.520Z,27.60
2018-03-16T11:47:45.365Z,29.30
2018-03-16T11:50:15.659Z,25.77
2018-03-16T11:52:44.407Z,26.20
2018-03-16T11:55:12.421Z,31.03
2018-03-16T11:57:40.019Z,24.27
2018-03-16T12:00:10.433Z,22.10
2018-03-16T12:02:38.029Z,27.53
2018-03-16T12:05:05.637Z,29.40
2018-03-16T12:07:33.216Z,31.03
2018-03-16T12:10:00.815Z,26.60
2018-03-16T12:12:28.399Z,29.77
2018-03-16T12:14:55.984Z,26.40
2018-03-16T12:17:23.603Z,24.63
2018-03-16T12:19:51.201Z,21.90
2018-03-16T12:22:18.792Z,24.80
2018-03-16T12:24:46.374Z,25.00
2018-03-16T12:27:14.027Z,25.60
2018-03-16T12:29:41.641Z,25.50
2018-03-16T12:32:09.245Z,24.90
2018-03-16T12:34:36.921Z,24.80
2018-03-16T12:37:04.496Z,22.20
2018-03-16T12:39:33.107Z,24.27
2018-03-16T12:42:00.686Z,23.40
2018-03-16T12:44:28.257Z,20.70
2018-03-16T12:46:55.889Z,21.80
2018-03-16T12:49:23.462Z,22.47
2018-03-16T12:51:51.067Z,22.30
2018-03-16T12:54:18.654Z,21.17
2018-03-16T12:56:46.234Z,28.50
2018-03-16T12:59:13.841Z,25.83
2018-03-16T13:01:41.413Z,24.40
2018-03-16T13:04:09.159Z,28.40
2018-03-16T13:06:36.737Z,26.10
2018-03-16T13:09:04.535Z,27.57
2018-03-16T13:11:34.228Z,24.63
2018-03-16T13:14:01.848Z,23.30
2018-03-16T13:16:29.415Z,24.60
2018-03-16T13:18:57.020Z,23.63
2018-03-16T13:21:24.606Z,31.40
2018-03-16T13:23:52.350Z,22.20
2018-03-16T13:26:19.948Z,25.80
2018-03-16T13:28:47.535Z,30.00
2018-03-16T13:31:15.529Z,20.57
2018-03-16T13:33:43.125Z,28.47
2018-03-16T13:36:10.982Z,28.90
2018-03-16T13:38:38.884Z,22.20
2018-03-16T13:41:06.710Z,25.07
2018-03-16T13:43:34.692Z,23.80
2018-03-16T13:46:02.653Z,24.80
2018-03-16T13:48:30.474Z,27.10
2018-03-16T13:50:58.058Z,23.30
2018-03-16T13:53:27.220Z,27.07
2018-03-16T13:55:54.854Z,21.87
2018-03-16T13:58:22.541Z,26.70
2018-03-16T14:00:50.134Z,23.57
2018-03-16T14:03:17.885Z,22.60
2018-03-16T14:05:45.607Z,24.80
2018-03-16T14:08:13.191Z,27.00
2018-03-16T14:10:40.747Z,24.70
2018-03-16T14:13:08.628Z,25.40
2018-03-16T14:15:36.339Z,29.10
2018-03-16T14:18:04.093Z,25.73
2018-03-16T14:20:32.243Z,27.77
2018-03-16T14:22:59.902Z,26.80
2018-03-16T14:25:27.606Z,29.00
2018-03-16T14:27:55.293Z,26.73
2018-03-16T14:30:22.831Z,30.53
2018-03-16T14:32:50.394Z,28.23
2018-03-16T14:35:18.228Z,27.73
2018-03-16T14:37:45.862Z,25.53
2018-03-16T14:40:13.570Z,25.23
2018-03-16T14:42:41.172Z,25.17
2018-03-16T14:45:08.789Z,24.93
2018-03-16T14:47:36.390Z,23.00
2018-03-16T14:50:04.020Z,19.60
2018-03-16T14:52:31.576Z,27.50
2018-03-16T14:54:59.214Z,19.83
2018-03-16T14:57:27.285Z,21.60
2018-03-16T14:59:55.047Z,17.47
2018-03-16T15:02:23.235Z,19.83
2018-03-16T15:04:56.721Z,19.77
2018-03-16T15:07:26.415Z,18.67
2018-03-16T15:09:57.772Z,17.60
2018-03-16T15:12:25.331Z,16.67
2018-03-16T15:14:55.660Z,15.37
2018-03-16T15:17:24.049Z,17.90
2018-03-16T15:19:55.809Z,17.97
2018-03-16T15:22:23.815Z,18.20
2018-03-16T15:25:02.136Z,16.30
2018-03-16T15:27:30.986Z,16.80
2018-03-16T15:29:59.868Z,17.00
2018-03-16T15:32:27.516Z,15.60
2018-03-16T15:34:58.170Z,15.23
2018-03-16T15:37:31.296Z,16.80
2018-03-16T15:40:06.519Z,17.03
2018-03-16T15:42:34.632Z,17.30
2018-03-16T15:45:02.285Z,18.07
2018-03-16T15:47:30.000Z,16.10
2018-03-16T15:50:00.194Z,17.60
2018-03-16T15:52:27.831Z,15.30
2018-03-16T15:54:58.797Z,18.33
2018-03-16T15:57:27.092Z,16.20
2018-03-16T15:59:55.025Z,16.53
2018-03-16T16:02:23.948Z,18.90
2018-03-16T16:04:51.546Z,15.77
2018-03-16T16:07:19.360Z,17.70
2018-03-16T16:09:46.972Z,16.07
2018-03-16T16:12:14.577Z,18.30
2018-03-16T16:14:42.246Z,21.30
2018-03-16T16:17:10.309Z,22.97
2018-03-16T16:19:38.019Z,18.90
2018-03-16T16:22:05.623Z,14.27
2018-03-16T16:24:33.196Z,17.37
2018-03-16T16:27:00.771Z,17.00
2018-03-16T16:29:28.778Z,17.03
2018-03-16T16:31:56.454Z,16.37
2018-03-16T16:34:25.541Z,20.77
2018-03-16T16:36:53.176Z,24.10
2018-03-16T16:39:21.075Z,23.40
2018-03-16T16:41:48.719Z,25.87
2018-03-16T16:44:16.338Z,29.07
2018-03-16T16:46:43.906Z,25.60
2018-03-16T16:49:11.941Z,19.40
2018-03-16T16:51:39.525Z,46.07
2018-03-16T16:54:07.140Z,22.57
2018-03-16T16:56:34.765Z,16.80
2018-03-16T16:59:02.326Z,25.33
2018-03-16T17:01:29.995Z,19.90
2018-03-16T17:03:57.571Z,18.53
2018-03-16T17:06:26.202Z,16.10
2018-03-16T17:08:54.150Z,18.57
2018-03-16T17:11:21.733Z,19.70
2018-03-16T17:13:49.306Z,18.07
2018-03-16T17:16:22.912Z,21.93
2018-03-16T17:21:40.505Z,25.07
2018-03-16T17:24:08.090Z,24.77
2018-03-16T17:26:36.171Z,25.17
2018-03-16T17:29:03.818Z,25.70
2018-03-16T17:31:31.454Z,23.93
2018-03-16T17:33:59.045Z,27.97
2018-03-16T17:36:28.147Z,29.37
2018-03-16T17:38:55.760Z,31.30
2018-03-16T17:41:25.962Z,29.40
2018-03-16T17:43:59.432Z,34.27
2018-03-16T17:46:27.322Z,33.00
2018-03-16T17:48:54.915Z,30.70
2018-03-16T17:51:22.543Z,32.00
2018-03-16T17:53:50.155Z,29.13
2018-03-16T17:56:17.782Z,26.00
2018-03-16T17:58:45.398Z,23.07
2018-03-16T18:01:12.990Z,32.10
2018-03-16T18:03:40.593Z,26.23
2018-03-16T18:06:09.005Z,30.27
2018-03-16T18:08:36.623Z,29.70
2018-03-16T18:11:04.220Z,42.57
2018-03-16T18:13:32.375Z,29.83
2018-03-16T18:15:59.992Z,32.87
2018-03-16T18:18:27.574Z,31.73
2018-03-16T18:20:55.141Z,30.63
2018-03-16T18:25:56.283Z,28.90
2018-03-16T18:28:24.515Z,22.60
2018-03-16T18:30:52.138Z,21.57
2018-03-16T18:33:20.148Z,26.37
2018-03-16T18:35:47.728Z,25.30
2018-03-16T18:38:15.298Z,132.87
2018-03-16T18:40:42.892Z,37.10
2018-03-16T18:43:11.315Z,23.10
2018-03-16T18:45:38.927Z,28.50
2018-03-16T18:48:06.540Z,35.10
2018-03-16T18:50:34.226Z,30.97
2018-03-16T18:53:01.830Z,26.33
2018-03-16T18:55:29.869Z,27.13
2018-03-16T18:57:57.457Z,21.70
2018-03-16T19:00:25.208Z,23.87
2018-03-16T19:02:52.805Z,23.90
2018-03-16T19:05:20.454Z,23.40
2018-03-16T19:07:53.871Z,19.00
2018-03-16T19:10:21.922Z,20.67
2018-03-16T19:12:52.745Z,27.07
2018-03-16T19:15:20.339Z,16.93
2018-03-16T19:17:52.107Z,23.03
2018-03-16T19:20:19.795Z,27.57
2018-03-16T19:22:48.610Z,22.17
2018-03-16T19:25:19.130Z,16.63
2018-03-16T19:27:46.764Z,23.83
2018-03-16T19:30:14.343Z,19.07
2018-03-16T19:32:41.929Z,23.77
2018-03-16T19:35:10.233Z,23.57
2018-03-16T19:37:37.841Z,17.90
2018-03-16T19:40:06.575Z,21.77
2018-03-16T19:42:34.166Z,21.37
2018-03-16T19:45:04.097Z,21.70
2018-03-16T19:47:32.573Z,20.27
2018-03-16T19:50:00.129Z,18.53
2018-03-16T19:52:27.685Z,19.47
2018-03-16T19:54:55.306Z,27.50
2018-03-16T19:57:23.499Z,27.27
2018-03-16T19:59:54.692Z,21.07
2018-03-16T20:02:24.173Z,18.23
2018-03-16T20:04:51.742Z,23.17
2018-03-16T20:07:19.371Z,22.60
2018-03-16T20:09:46.977Z,27.93
2018-03-16T20:12:14.699Z,20.90
2018-03-16T20:14:42.262Z,21.27
2018-03-16T20:17:10.611Z,21.63
2018-03-16T20:19:38.153Z,25.20
2018-03-16T20:22:05.861Z,18.73
2018-03-16T20:24:33.426Z,23.70
2018-03-16T20:27:01.027Z,27.33
2018-03-16T20:29:29.245Z,23.73
2018-03-16T20:31:56.849Z,23.63
2018-03-16T20:34:26.188Z,19.17
2018-03-16T20:36:53.792Z,19.10
2018-03-16T20:39:22.495Z,19.37
2018-03-16T20:41:50.166Z,19.70
2018-03-16T20:44:17.715Z,22.87
2018-03-16T20:46:45.308Z,32.00
2018-03-16T20:49:13.983Z,32.00
2018-03-16T20:51:41.683Z,33.70
2018-03-16T20:54:09.575Z,30.53
2018-03-16T20:56:37.272Z,33.03
2018-03-16T20:59:04.833Z,37.87
2018-03-16T21:01:32.408Z,29.83
2018-03-16T21:03:59.982Z,28.40
2018-03-16T21:06:28.033Z,25.93
2018-03-16T21:08:55.586Z,24.20
2018-03-16T21:11:23.167Z,24.63
2018-03-16T21:13:50.729Z,22.20
2018-03-16T21:16:18.290Z,19.90
2018-03-16T21:18:45.884Z,21.10
2018-03-16T21:21:13.439Z,26.20
2018-03-16T21:23:41.000Z,19.77
2018-03-16T21:26:08.614Z,21.07
2018-03-16T21:28:36.227Z,24.97
2018-03-16T21:31:03.803Z,29.43
2018-03-16T21:33:32.554Z,33.03
2018-03-16T21:36:00.204Z,29.60
2018-03-16T21:38:27.776Z,24.73
2018-03-16T21:40:55.342Z,21.57
2018-03-16T21:43:22.951Z,20.20
2018-03-16T21:45:50.559Z,44.10
2018-03-16T21:48:18.124Z,30.80
2018-03-16T21:50:45.694Z,197.73
2018-03-16T21:53:13.424Z,153.20
2018-03-16T21:55:41.042Z,103.33
2018-03-16T21:58:08.721Z,27.67
2018-03-16T22:00:36.289Z,52.17
2018-03-16T22:03:03.884Z,57.50
2018-03-16T22:05:31.552Z,39.53
2018-03-16T22:07:59.159Z,25.40
2018-03-16T22:10:26.706Z,29.17
2018-03-16T22:12:54.283Z,31.10
2018-03-16T22:15:23.322Z,18.53
2018-03-16T22:17:51.058Z,57.93
2018-03-16T22:20:19.104Z,223.83
2018-03-16T22:22:46.712Z,185.37
2018-03-16T22:25:14.881Z,546.37
2018-03-16T22:27:42.470Z,263.77
2018-03-16T22:30:10.290Z,355.57
2018-03-16T22:32:37.876Z,36.30
2018-03-16T22:35:07.824Z,29.57
2018-03-16T22:37:35.479Z,21.40
2018-03-16T22:40:03.060Z,22.27
2018-03-16T22:42:30.694Z,15.67
2018-03-16T22:44:58.258Z,28.97
2018-03-16T22:47:25.862Z,24.07
2018-03-16T22:49:53.456Z,20.27
2018-03-16T22:52:21.037Z,15.33
2018-03-16T22:54:48.664Z,16.73
2018-03-16T22:57:17.709Z,18.03
2018-03-16T22:59:45.364Z,20.10
2018-03-16T23:02:14.934Z,19.93
2018-03-16T23:04:43.206Z,18.97
2018-03-16T23:07:22.980Z,16.80
2018-03-16T23:09:50.669Z,13.50
2018-03-16T23:12:18.231Z,18.70
2018-03-16T23:14:45.813Z,18.00
2018-03-16T23:17:17.549Z,17.87
2018-03-16T23:19:45.888Z,28.77
2018-03-16T23:22:16.941Z,22.60
2018-03-16T23:24:47.550Z,22.20
2018-03-16T23:27:19.997Z,18.93
2018-03-16T23:29:47.568Z,20.33
2018-03-16T23:32:18.725Z,20.23
2018-03-16T23:34:46.374Z,24.50
2018-03-16T23:37:14.573Z,23.40
2018-03-16T23:39:42.152Z,23.53
2018-03-16T23:42:09.737Z,22.50
2018-03-16T23:44:37.980Z,21.90
2018-03-16T23:47:06.400Z,22.73
2018-03-16T23:49:34.021Z,19.83
2018-03-16T23:52:01.751Z,18.40
2018-03-16T23:54:31.150Z,20.23
2018-03-16T23:56:58.747Z,28.37
2018-03-16T23:59:26.311Z,32.37
